sensor_id;sensor_type;location;lat;lon;timestamp;temperature;humidity
18388;DHT22;9320;50.256;19.026;2022-09-09T00:01:03;17.70;99.90
18388;DHT22;9320;50.256;19.026;2022-09-09T00:03:40;17.60;99.90
18388;DHT22;9320;50.256;19.026;2022-09-09T00:06:17;17.60;99.90
18388;DHT22;9320;50.256;19.026;2022-09-09T00:09:08;17.60;99.90
18388;DHT22;9320;50.256;19.026;2022-09-09T00:11:42;17.50;99.90
18388;DHT22;9320;50.256;19.026;2022-09-09T00:14:19;17.50;99.90
18388;DHT22;9320;50.256;19.026;2022-09-09T00:16:53;17.40;99.90
18388;DHT22;9320;50.256;19.026;2022-09-09T00:19:26;17.40;99.90
18388;DHT22;9320;50.256;19.026;2022-09-09T00:22:07;17.40;99.90
18388;DHT22;9320;50.256;19.026;2022-09-09T00:24:43;17.30;99.90
18388;DHT22;9320;50.256;19.026;2022-09-09T00:27:19;17.20;99.90
18388;DHT22;9320;50.256;19.026;2022-09-09T00:29:51;17.20;99.90
18388;DHT22;9320;50.256;19.026;2022-09-09T00:32:21;17.20;99.90
18388;DHT22;9320;50.256;19.026;2022-09-09T00:34:52;17.20;99.90
18388;DHT22;9320;50.256;19.026;2022-09-09T00:37:24;17.20;99.90
18388;DHT22;9320;50.256;19.026;2022-09-09T00:39:55;17.10;99.90
18388;DHT22;9320;50.256;19.026;2022-09-09T00:42:32;17.10;99.90
18388;DHT22;9320;50.256;19.026;2022-09-09T00:45:19;17.10;99.90
18388;DHT22;9320;50.256;19.026;2022-09-09T00:47:53;17.10;99.90
18388;DHT22;9320;50.256;19.026;2022-09-09T00:50:35;17.10;99.90
18388;DHT22;9320;50.256;19.026;2022-09-09T00:53:19;17.00;99.90
18388;DHT22;9320;50.256;19.026;2022-09-09T00:55:56;17.00;99.90
18388;DHT22;9320;50.256;19.026;2022-09-09T00:58:27;17.00;99.90
18388;DHT22;9320;50.256;19.026;2022-09-09T01:00:59;17.00;99.90
18388;DHT22;9320;50.256;19.026;2022-09-09T01:03:35;17.00;99.90
18388;DHT22;9320;50.256;19.026;2022-09-09T01:06:13;16.90;99.90
18388;DHT22;9320;50.256;19.026;2022-09-09T01:09:05;16.90;99.90
18388;DHT22;9320;50.256;19.026;2022-09-09T01:11:45;16.90;99.90
18388;DHT22;9320;50.256;19.026;2022-09-09T01:14:28;16.90;99.90
18388;DHT22;9320;50.256;19.026;2022-09-09T01:17:00;16.90;99.90
18388;DHT22;9320;50.256;19.026;2022-09-09T01:19:39;16.90;99.90
18388;DHT22;9320;50.256;19.026;2022-09-09T01:22:15;16.90;99.90
18388;DHT22;9320;50.256;19.026;2022-09-09T01:25:05;16.90;99.90
18388;DHT22;9320;50.256;19.026;2022-09-09T01:27:40;17.00;99.90
18388;DHT22;9320;50.256;19.026;2022-09-09T01:30:10;17.00;99.90
18388;DHT22;9320;50.256;19.026;2022-09-09T01:32:42;17.00;99.90
18388;DHT22;9320;50.256;19.026;2022-09-09T01:35:15;17.00;99.90
18388;DHT22;9320;50.256;19.026;2022-09-09T01:37:47;17.00;99.90
18388;DHT22;9320;50.256;19.026;2022-09-09T01:40:15;17.00;99.90
18388;DHT22;9320;50.256;19.026;2022-09-09T01:42:44;17.00;99.90
18388;DHT22;9320;50.256;19.026;2022-09-09T01:45:12;16.90;99.90
18388;DHT22;9320;50.256;19.026;2022-09-09T01:47:41;16.90;99.90
18388;DHT22;9320;50.256;19.026;2022-09-09T01:50:10;16.90;99.90
18388;DHT22;9320;50.256;19.026;2022-09-09T01:52:40;16.70;99.90
18388;DHT22;9320;50.256;19.026;2022-09-09T01:55:09;16.80;99.90
18388;DHT22;9320;50.256;19.026;2022-09-09T01:57:46;16.70;99.90
18388;DHT22;9320;50.256;19.026;2022-09-09T02:00:18;16.70;99.90
18388;DHT22;9320;50.256;19.026;2022-09-09T02:02:55;16.60;99.90
18388;DHT22;9320;50.256;19.026;2022-09-09T02:05:36;16.70;99.90
18388;DHT22;9320;50.256;19.026;2022-09-09T02:08:07;16.70;99.90
18388;DHT22;9320;50.256;19.026;2022-09-09T02:10:40;16.70;99.90
18388;DHT22;9320;50.256;19.026;2022-09-09T02:13:13;16.70;99.90
18388;DHT22;9320;50.256;19.026;2022-09-09T02:15:46;16.60;99.90
18388;DHT22;9320;50.256;19.026;2022-09-09T02:18:20;16.60;99.90
18388;DHT22;9320;50.256;19.026;2022-09-09T02:20:51;16.60;99.90
18388;DHT22;9320;50.256;19.026;2022-09-09T02:23:21;16.60;99.90
18388;DHT22;9320;50.256;19.026;2022-09-09T02:25:50;16.60;99.90
18388;DHT22;9320;50.256;19.026;2022-09-09T02:28:21;16.60;99.90
18388;DHT22;9320;50.256;19.026;2022-09-09T02:30:52;16.60;99.90
18388;DHT22;9320;50.256;19.026;2022-09-09T02:33:24;16.70;99.90
18388;DHT22;9320;50.256;19.026;2022-09-09T02:35:54;16.60;99.90
18388;DHT22;9320;50.256;19.026;2022-09-09T02:38:30;16.70;99.90
18388;DHT22;9320;50.256;19.026;2022-09-09T02:41:02;16.70;99.90
18388;DHT22;9320;50.256;19.026;2022-09-09T02:43:33;16.70;99.90
18388;DHT22;9320;50.256;19.026;2022-09-09T02:46:08;16.70;99.90
18388;DHT22;9320;50.256;19.026;2022-09-09T02:48:47;16.70;99.90
18388;DHT22;9320;50.256;19.026;2022-09-09T02:51:21;16.70;99.90
18388;DHT22;9320;50.256;19.026;2022-09-09T02:53:56;16.60;99.90
18388;DHT22;9320;50.256;19.026;2022-09-09T02:56:28;16.60;99.90
18388;DHT22;9320;50.256;19.026;2022-09-09T02:58:58;16.50;99.90
18388;DHT22;9320;50.256;19.026;2022-09-09T03:01:26;16.50;99.90
18388;DHT22;9320;50.256;19.026;2022-09-09T03:03:54;16.40;99.90
18388;DHT22;9320;50.256;19.026;2022-09-09T03:06:22;16.50;99.90
18388;DHT22;9320;50.256;19.026;2022-09-09T03:08:50;16.30;99.90
18388;DHT22;9320;50.256;19.026;2022-09-09T03:11:19;16.30;99.90
18388;DHT22;9320;50.256;19.026;2022-09-09T03:13:47;16.30;99.90
18388;DHT22;9320;50.256;19.026;2022-09-09T03:16:16;16.30;99.90
18388;DHT22;9320;50.256;19.026;2022-09-09T03:18:44;16.20;99.90
18388;DHT22;9320;50.256;19.026;2022-09-09T03:21:12;16.20;99.90
18388;DHT22;9320;50.256;19.026;2022-09-09T03:23:41;16.20;99.90
18388;DHT22;9320;50.256;19.026;2022-09-09T03:26:09;16.20;99.90
18388;DHT22;9320;50.256;19.026;2022-09-09T03:28:37;16.10;99.90
18388;DHT22;9320;50.256;19.026;2022-09-09T03:31:06;16.10;99.90
18388;DHT22;9320;50.256;19.026;2022-09-09T03:33:38;16.00;99.90
18388;DHT22;9320;50.256;19.026;2022-09-09T03:36:08;16.00;99.90
18388;DHT22;9320;50.256;19.026;2022-09-09T03:38:37;16.10;99.90
18388;DHT22;9320;50.256;19.026;2022-09-09T03:41:05;16.00;99.90
18388;DHT22;9320;50.256;19.026;2022-09-09T03:43:34;16.00;99.90
18388;DHT22;9320;50.256;19.026;2022-09-09T03:46:04;16.00;99.90
18388;DHT22;9320;50.256;19.026;2022-09-09T03:48:32;16.00;99.90
18388;DHT22;9320;50.256;19.026;2022-09-09T03:51:02;15.90;99.90
18388;DHT22;9320;50.256;19.026;2022-09-09T03:53:30;15.90;99.90
18388;DHT22;9320;50.256;19.026;2022-09-09T03:55:58;15.90;99.90
18388;DHT22;9320;50.256;19.026;2022-09-09T03:58:27;15.90;99.90
18388;DHT22;9320;50.256;19.026;2022-09-09T04:00:57;15.90;99.90
18388;DHT22;9320;50.256;19.026;2022-09-09T04:03:25;15.90;99.90
18388;DHT22;9320;50.256;19.026;2022-09-09T04:05:55;15.80;99.90
18388;DHT22;9320;50.256;19.026;2022-09-09T04:08:26;15.80;99.90
18388;DHT22;9320;50.256;19.026;2022-09-09T04:10:54;15.80;99.90
18388;DHT22;9320;50.256;19.026;2022-09-09T04:13:25;15.80;99.90
18388;DHT22;9320;50.256;19.026;2022-09-09T04:15:55;15.80;99.90
18388;DHT22;9320;50.256;19.026;2022-09-09T04:18:24;15.80;99.90
18388;DHT22;9320;50.256;19.026;2022-09-09T04:20:53;15.80;99.90
18388;DHT22;9320;50.256;19.026;2022-09-09T04:23:25;15.80;99.90
18388;DHT22;9320;50.256;19.026;2022-09-09T04:25:55;15.70;99.90
18388;DHT22;9320;50.256;19.026;2022-09-09T04:28:24;15.80;99.90
18388;DHT22;9320;50.256;19.026;2022-09-09T04:30:53;15.80;99.90
18388;DHT22;9320;50.256;19.026;2022-09-09T04:33:21;15.80;99.90
18388;DHT22;9320;50.256;19.026;2022-09-09T04:35:50;15.80;99.90
18388;DHT22;9320;50.256;19.026;2022-09-09T04:38:20;15.80;99.90
18388;DHT22;9320;50.256;19.026;2022-09-09T04:40:51;15.80;99.90
18388;DHT22;9320;50.256;19.026;2022-09-09T04:43:20;15.80;99.90
18388;DHT22;9320;50.256;19.026;2022-09-09T04:45:50;15.70;99.90
18388;DHT22;9320;50.256;19.026;2022-09-09T04:48:19;15.70;99.90
18388;DHT22;9320;50.256;19.026;2022-09-09T04:50:54;15.70;99.90
18388;DHT22;9320;50.256;19.026;2022-09-09T04:53:23;15.70;99.90
18388;DHT22;9320;50.256;19.026;2022-09-09T04:56:00;15.80;99.90
18388;DHT22;9320;50.256;19.026;2022-09-09T04:58:29;15.80;99.90
18388;DHT22;9320;50.256;19.026;2022-09-09T05:01:03;15.80;99.90
18388;DHT22;9320;50.256;19.026;2022-09-09T05:03:31;15.80;99.90
18388;DHT22;9320;50.256;19.026;2022-09-09T05:06:05;15.90;99.90
18388;DHT22;9320;50.256;19.026;2022-09-09T05:08:35;15.90;99.90
18388;DHT22;9320;50.256;19.026;2022-09-09T05:11:13;15.90;99.90
18388;DHT22;9320;50.256;19.026;2022-09-09T05:13:42;15.90;99.90
18388;DHT22;9320;50.256;19.026;2022-09-09T05:16:10;15.90;99.90
18388;DHT22;9320;50.256;19.026;2022-09-09T05:18:38;15.90;99.90
18388;DHT22;9320;50.256;19.026;2022-09-09T05:21:07;15.90;99.90
18388;DHT22;9320;50.256;19.026;2022-09-09T05:23:35;15.90;99.90
18388;DHT22;9320;50.256;19.026;2022-09-09T05:26:05;16.00;99.90
18388;DHT22;9320;50.256;19.026;2022-09-09T05:28:34;16.00;99.90
18388;DHT22;9320;50.256;19.026;2022-09-09T05:31:05;15.90;99.90
18388;DHT22;9320;50.256;19.026;2022-09-09T05:33:35;15.90;99.90
18388;DHT22;9320;50.256;19.026;2022-09-09T05:36:05;16.00;99.90
18388;DHT22;9320;50.256;19.026;2022-09-09T05:38:35;16.00;99.90
18388;DHT22;9320;50.256;19.026;2022-09-09T05:41:05;16.10;99.90
18388;DHT22;9320;50.256;19.026;2022-09-09T05:43:33;16.10;99.90
18388;DHT22;9320;50.256;19.026;2022-09-09T05:46:04;16.10;99.90
18388;DHT22;9320;50.256;19.026;2022-09-09T05:48:34;16.20;99.90
18388;DHT22;9320;50.256;19.026;2022-09-09T05:51:02;16.20;99.90
18388;DHT22;9320;50.256;19.026;2022-09-09T05:53:31;16.20;99.90
18388;DHT22;9320;50.256;19.026;2022-09-09T05:56:02;16.20;99.90
18388;DHT22;9320;50.256;19.026;2022-09-09T05:58:32;16.20;99.90
18388;DHT22;9320;50.256;19.026;2022-09-09T06:01:02;16.20;99.90
18388;DHT22;9320;50.256;19.026;2022-09-09T06:03:31;16.20;99.90
18388;DHT22;9320;50.256;19.026;2022-09-09T06:06:00;16.30;99.90
18388;DHT22;9320;50.256;19.026;2022-09-09T06:08:28;16.30;99.90
18388;DHT22;9320;50.256;19.026;2022-09-09T06:11:01;16.30;99.90
18388;DHT22;9320;50.256;19.026;2022-09-09T06:13:32;16.40;99.90
18388;DHT22;9320;50.256;19.026;2022-09-09T06:16:00;16.40;99.90
18388;DHT22;9320;50.256;19.026;2022-09-09T06:18:28;16.50;99.90
18388;DHT22;9320;50.256;19.026;2022-09-09T06:20:58;16.50;99.90
18388;DHT22;9320;50.256;19.026;2022-09-09T06:23:27;16.50;99.90
18388;DHT22;9320;50.256;19.026;2022-09-09T06:26:04;16.60;99.90
18388;DHT22;9320;50.256;19.026;2022-09-09T06:28:34;16.60;99.90
18388;DHT22;9320;50.256;19.026;2022-09-09T06:31:04;16.60;99.90
18388;DHT22;9320;50.256;19.026;2022-09-09T06:33:34;16.60;99.90
18388;DHT22;9320;50.256;19.026;2022-09-09T06:36:04;16.70;99.90
18388;DHT22;9320;50.256;19.026;2022-09-09T06:38:32;16.80;99.90
18388;DHT22;9320;50.256;19.026;2022-09-09T06:41:00;16.80;99.90
18388;DHT22;9320;50.256;19.026;2022-09-09T06:43:29;16.80;99.90
18388;DHT22;9320;50.256;19.026;2022-09-09T06:46:00;16.90;99.90
18388;DHT22;9320;50.256;19.026;2022-09-09T06:48:30;16.90;99.90
18388;DHT22;9320;50.256;19.026;2022-09-09T06:51:01;16.90;99.90
18388;DHT22;9320;50.256;19.026;2022-09-09T06:53:30;17.00;99.90
18388;DHT22;9320;50.256;19.026;2022-09-09T06:56:00;17.00;99.90
18388;DHT22;9320;50.256;19.026;2022-09-09T06:58:29;17.10;99.90
18388;DHT22;9320;50.256;19.026;2022-09-09T07:01:03;17.20;99.90
18388;DHT22;9320;50.256;19.026;2022-09-09T07:03:32;17.20;99.90
18388;DHT22;9320;50.256;19.026;2022-09-09T07:06:00;17.30;99.90
18388;DHT22;9320;50.256;19.026;2022-09-09T07:08:30;17.30;99.90
18388;DHT22;9320;50.256;19.026;2022-09-09T07:11:03;17.30;99.90
18388;DHT22;9320;50.256;19.026;2022-09-09T07:13:37;17.40;99.90
18388;DHT22;9320;50.256;19.026;2022-09-09T07:16:09;17.40;99.90
18388;DHT22;9320;50.256;19.026;2022-09-09T07:18:38;17.50;99.90
18388;DHT22;9320;50.256;19.026;2022-09-09T07:21:06;17.50;99.90
18388;DHT22;9320;50.256;19.026;2022-09-09T07:23:35;17.50;99.90
18388;DHT22;9320;50.256;19.026;2022-09-09T07:26:06;17.50;99.90
18388;DHT22;9320;50.256;19.026;2022-09-09T07:28:35;17.60;99.90
18388;DHT22;9320;50.256;19.026;2022-09-09T07:31:04;17.60;99.90
18388;DHT22;9320;50.256;19.026;2022-09-09T07:33:35;17.70;99.90
18388;DHT22;9320;50.256;19.026;2022-09-09T07:36:05;17.80;99.90
18388;DHT22;9320;50.256;19.026;2022-09-09T07:38:38;17.90;99.90
18388;DHT22;9320;50.256;19.026;2022-09-09T07:41:07;17.90;99.90
18388;DHT22;9320;50.256;19.026;2022-09-09T07:43:38;18.00;99.90
18388;DHT22;9320;50.256;19.026;2022-09-09T07:46:08;17.90;99.90
18388;DHT22;9320;50.256;19.026;2022-09-09T07:48:38;17.90;99.90
18388;DHT22;9320;50.256;19.026;2022-09-09T07:51:07;18.00;99.90
18388;DHT22;9320;50.256;19.026;2022-09-09T07:53:38;18.10;99.90
18388;DHT22;9320;50.256;19.026;2022-09-09T07:56:08;18.20;99.90
18388;DHT22;9320;50.256;19.026;2022-09-09T07:58:36;18.20;99.90
18388;DHT22;9320;50.256;19.026;2022-09-09T08:01:09;18.30;99.90
18388;DHT22;9320;50.256;19.026;2022-09-09T08:03:39;18.50;99.90
18388;DHT22;9320;50.256;19.026;2022-09-09T08:06:08;18.60;99.90
18388;DHT22;9320;50.256;19.026;2022-09-09T08:08:36;18.70;99.90
18388;DHT22;9320;50.256;19.026;2022-09-09T08:11:06;18.90;99.90
18388;DHT22;9320;50.256;19.026;2022-09-09T08:13:36;19.20;99.90
18388;DHT22;9320;50.256;19.026;2022-09-09T08:16:06;19.60;99.90
18388;DHT22;9320;50.256;19.026;2022-09-09T08:18:35;20.00;99.90
18388;DHT22;9320;50.256;19.026;2022-09-09T08:21:10;20.20;99.90
18388;DHT22;9320;50.256;19.026;2022-09-09T08:23:39;20.40;99.90
18388;DHT22;9320;50.256;19.026;2022-09-09T08:26:11;20.60;99.90
18388;DHT22;9320;50.256;19.026;2022-09-09T08:28:40;20.70;99.90
18388;DHT22;9320;50.256;19.026;2022-09-09T08:31:10;20.80;99.90
18388;DHT22;9320;50.256;19.026;2022-09-09T08:33:39;20.90;99.90
18388;DHT22;9320;50.256;19.026;2022-09-09T08:36:12;20.90;99.90
18388;DHT22;9320;50.256;19.026;2022-09-09T08:38:42;21.00;99.90
18388;DHT22;9320;50.256;19.026;2022-09-09T08:44:07;21.30;99.90
18388;DHT22;9320;50.256;19.026;2022-09-09T08:46:44;21.60;99.90
18388;DHT22;9320;50.256;19.026;2022-09-09T08:49:25;21.90;99.90
18388;DHT22;9320;50.256;19.026;2022-09-09T08:52:02;22.00;99.90
18388;DHT22;9320;50.256;19.026;2022-09-09T08:54:34;22.20;99.90
18388;DHT22;9320;50.256;19.026;2022-09-09T08:57:21;22.30;97.80
18388;DHT22;9320;50.256;19.026;2022-09-09T08:59:55;22.20;97.80
18388;DHT22;9320;50.256;19.026;2022-09-09T09:02:27;22.30;97.10
18388;DHT22;9320;50.256;19.026;2022-09-09T09:05:14;22.50;97.10
18388;DHT22;9320;50.256;19.026;2022-09-09T09:07:58;22.60;96.20
18388;DHT22;9320;50.256;19.026;2022-09-09T09:10:36;22.40;97.00
18388;DHT22;9320;50.256;19.026;2022-09-09T09:13:13;22.50;96.10
18388;DHT22;9320;50.256;19.026;2022-09-09T09:15:44;22.60;95.40
18388;DHT22;9320;50.256;19.026;2022-09-09T09:18:15;22.70;94.10
18388;DHT22;9320;50.256;19.026;2022-09-09T09:20:51;22.90;93.60
18388;DHT22;9320;50.256;19.026;2022-09-09T09:23:24;22.90;93.00
18388;DHT22;9320;50.256;19.026;2022-09-09T09:25:58;23.30;92.30
18388;DHT22;9320;50.256;19.026;2022-09-09T09:28:29;24.00;91.80
18388;DHT22;9320;50.256;19.026;2022-09-09T09:31:03;24.70;89.00
18388;DHT22;9320;50.256;19.026;2022-09-09T09:33:36;25.20;87.50
18388;DHT22;9320;50.256;19.026;2022-09-09T09:36:07;25.50;84.00
18388;DHT22;9320;50.256;19.026;2022-09-09T09:38:37;26.40;80.20
18388;DHT22;9320;50.256;19.026;2022-09-09T09:41:31;27.00;78.00
18388;DHT22;9320;50.256;19.026;2022-09-09T09:44:01;26.50;77.20
18388;DHT22;9320;50.256;19.026;2022-09-09T09:46:30;26.20;78.10
18388;DHT22;9320;50.256;19.026;2022-09-09T09:48:59;27.00;78.40
18388;DHT22;9320;50.256;19.026;2022-09-09T09:51:29;28.70;69.50
18388;DHT22;9320;50.256;19.026;2022-09-09T09:54:09;29.10;67.40
18388;DHT22;9320;50.256;19.026;2022-09-09T09:56:42;30.90;64.10
18388;DHT22;9320;50.256;19.026;2022-09-09T09:59:21;32.20;58.90
18388;DHT22;9320;50.256;19.026;2022-09-09T10:02:16;31.00;59.00
18388;DHT22;9320;50.256;19.026;2022-09-09T10:04:45;29.30;60.70
18388;DHT22;9320;50.256;19.026;2022-09-09T10:07:18;27.80;65.00
18388;DHT22;9320;50.256;19.026;2022-09-09T10:09:52;26.60;68.00
18388;DHT22;9320;50.256;19.026;2022-09-09T10:12:30;26.40;70.30
18388;DHT22;9320;50.256;19.026;2022-09-09T10:15:15;27.40;66.30
18388;DHT22;9320;50.256;19.026;2022-09-09T10:17:56;27.60;67.60
18388;DHT22;9320;50.256;19.026;2022-09-09T10:20:35;28.10;66.50
18388;DHT22;9320;50.256;19.026;2022-09-09T10:23:22;27.90;65.40
18388;DHT22;9320;50.256;19.026;2022-09-09T10:26:08;27.20;66.90
18388;DHT22;9320;50.256;19.026;2022-09-09T10:28:55;27.30;67.40
18388;DHT22;9320;50.256;19.026;2022-09-09T10:31:31;27.10;67.90
18388;DHT22;9320;50.256;19.026;2022-09-09T10:34:11;27.20;67.20
18388;DHT22;9320;50.256;19.026;2022-09-09T10:36:47;27.00;68.10
18388;DHT22;9320;50.256;19.026;2022-09-09T10:39:25;26.80;66.90
18388;DHT22;9320;50.256;19.026;2022-09-09T10:42:05;26.10;67.10
18388;DHT22;9320;50.256;19.026;2022-09-09T10:44:46;25.80;69.70
18388;DHT22;9320;50.256;19.026;2022-09-09T10:47:26;25.90;69.20
18388;DHT22;9320;50.256;19.026;2022-09-09T10:50:13;25.80;67.70
18388;DHT22;9320;50.256;19.026;2022-09-09T10:52:52;25.80;70.30
18388;DHT22;9320;50.256;19.026;2022-09-09T10:55:31;26.00;70.60
18388;DHT22;9320;50.256;19.026;2022-09-09T10:58:05;26.00;70.80
18388;DHT22;9320;50.256;19.026;2022-09-09T11:00:38;26.00;69.50
18388;DHT22;9320;50.256;19.026;2022-09-09T11:03:16;25.80;70.00
18388;DHT22;9320;50.256;19.026;2022-09-09T11:05:49;25.50;70.80
18388;DHT22;9320;50.256;19.026;2022-09-09T11:08:20;25.10;68.60
18388;DHT22;9320;50.256;19.026;2022-09-09T11:10:58;24.80;71.60
18388;DHT22;9320;50.256;19.026;2022-09-09T11:13:35;24.70;71.20
18388;DHT22;9320;50.256;19.026;2022-09-09T11:16:17;24.50;70.70
18388;DHT22;9320;50.256;19.026;2022-09-09T11:18:47;24.50;70.80
18388;DHT22;9320;50.256;19.026;2022-09-09T11:21:20;24.50;71.30
18388;DHT22;9320;50.256;19.026;2022-09-09T11:23:54;24.60;70.90
18388;DHT22;9320;50.256;19.026;2022-09-09T11:26:29;24.80;66.60
18388;DHT22;9320;50.256;19.026;2022-09-09T11:29:13;24.90;67.00
18388;DHT22;9320;50.256;19.026;2022-09-09T11:31:57;24.80;66.30
18388;DHT22;9320;50.256;19.026;2022-09-09T11:34:37;24.60;66.60
18388;DHT22;9320;50.256;19.026;2022-09-09T11:37:18;24.50;67.30
18388;DHT22;9320;50.256;19.026;2022-09-09T11:40:07;24.20;67.70
18388;DHT22;9320;50.256;19.026;2022-09-09T11:42:37;23.90;68.20
18388;DHT22;9320;50.256;19.026;2022-09-09T11:45:19;23.80;68.30
18388;DHT22;9320;50.256;19.026;2022-09-09T11:47:53;23.90;67.90
18388;DHT22;9320;50.256;19.026;2022-09-09T11:50:31;24.00;67.60
18388;DHT22;9320;50.256;19.026;2022-09-09T11:53:22;23.90;67.60
18388;DHT22;9320;50.256;19.026;2022-09-09T11:56:02;24.10;66.60
18388;DHT22;9320;50.256;19.026;2022-09-09T11:58:36;24.20;68.30
18388;DHT22;9320;50.256;19.026;2022-09-09T12:01:27;24.10;66.60
18388;DHT22;9320;50.256;19.026;2022-09-09T12:04:13;24.10;67.90
18388;DHT22;9320;50.256;19.026;2022-09-09T12:06:51;24.10;68.60
18388;DHT22;9320;50.256;19.026;2022-09-09T12:09:25;24.00;67.60
18388;DHT22;9320;50.256;19.026;2022-09-09T12:12:05;24.00;68.20
18388;DHT22;9320;50.256;19.026;2022-09-09T12:14:38;24.00;68.20
18388;DHT22;9320;50.256;19.026;2022-09-09T12:17:19;24.00;67.90
18388;DHT22;9320;50.256;19.026;2022-09-09T12:20:00;24.00;68.20
18388;DHT22;9320;50.256;19.026;2022-09-09T12:22:37;24.00;68.00
18388;DHT22;9320;50.256;19.026;2022-09-09T12:25:18;24.10;67.30
18388;DHT22;9320;50.256;19.026;2022-09-09T12:28:00;24.10;67.60
18388;DHT22;9320;50.256;19.026;2022-09-09T12:30:34;24.00;68.60
18388;DHT22;9320;50.256;19.026;2022-09-09T12:33:10;24.10;66.10
18388;DHT22;9320;50.256;19.026;2022-09-09T12:35:40;24.20;64.50
18388;DHT22;9320;50.256;19.026;2022-09-09T12:38:13;24.40;65.40
18388;DHT22;9320;50.256;19.026;2022-09-09T12:40:54;24.30;64.20
18388;DHT22;9320;50.256;19.026;2022-09-09T12:43:25;24.20;66.00
18388;DHT22;9320;50.256;19.026;2022-09-09T12:45:56;24.20;67.20
18388;DHT22;9320;50.256;19.026;2022-09-09T12:48:36;24.20;67.40
18388;DHT22;9320;50.256;19.026;2022-09-09T12:51:17;24.10;68.10
18388;DHT22;9320;50.256;19.026;2022-09-09T12:53:46;24.00;67.30
18388;DHT22;9320;50.256;19.026;2022-09-09T12:56:19;23.90;68.80
18388;DHT22;9320;50.256;19.026;2022-09-09T12:58:50;23.90;67.60
18388;DHT22;9320;50.256;19.026;2022-09-09T13:01:22;23.90;68.00
18388;DHT22;9320;50.256;19.026;2022-09-09T13:03:52;23.80;67.90
18388;DHT22;9320;50.256;19.026;2022-09-09T13:06:22;23.80;66.70
18388;DHT22;9320;50.256;19.026;2022-09-09T13:08:56;23.70;66.10
18388;DHT22;9320;50.256;19.026;2022-09-09T13:11:28;23.70;67.60
18388;DHT22;9320;50.256;19.026;2022-09-09T13:13:58;23.70;68.20
18388;DHT22;9320;50.256;19.026;2022-09-09T13:16:28;23.80;67.90
18388;DHT22;9320;50.256;19.026;2022-09-09T13:19:01;23.80;66.40
18388;DHT22;9320;50.256;19.026;2022-09-09T13:21:34;23.80;67.00
18388;DHT22;9320;50.256;19.026;2022-09-09T13:24:05;23.90;66.40
18388;DHT22;9320;50.256;19.026;2022-09-09T13:26:34;23.90;68.20
18388;DHT22;9320;50.256;19.026;2022-09-09T13:29:17;23.90;67.10
18388;DHT22;9320;50.256;19.026;2022-09-09T13:31:48;23.90;67.50
18388;DHT22;9320;50.256;19.026;2022-09-09T13:34:29;23.90;66.10
18388;DHT22;9320;50.256;19.026;2022-09-09T13:36:59;23.90;63.80
18388;DHT22;9320;50.256;19.026;2022-09-09T13:39:30;24.00;65.20
18388;DHT22;9320;50.256;19.026;2022-09-09T13:41:58;24.00;64.70
18388;DHT22;9320;50.256;19.026;2022-09-09T13:44:27;24.10;65.20
18388;DHT22;9320;50.256;19.026;2022-09-09T13:47:04;24.00;63.20
18388;DHT22;9320;50.256;19.026;2022-09-09T13:49:37;24.00;62.00
18388;DHT22;9320;50.256;19.026;2022-09-09T13:52:10;24.00;63.50
18388;DHT22;9320;50.256;19.026;2022-09-09T13:54:38;24.10;65.10
18388;DHT22;9320;50.256;19.026;2022-09-09T13:57:15;24.10;66.40
18388;DHT22;9320;50.256;19.026;2022-09-09T13:59:44;24.20;64.90
18388;DHT22;9320;50.256;19.026;2022-09-09T14:02:30;24.20;65.00
18388;DHT22;9320;50.256;19.026;2022-09-09T14:04:59;24.20;65.50
18388;DHT22;9320;50.256;19.026;2022-09-09T14:07:27;24.00;64.90
18388;DHT22;9320;50.256;19.026;2022-09-09T14:09:55;24.00;65.70
18388;DHT22;9320;50.256;19.026;2022-09-09T14:12:24;23.80;65.80
18388;DHT22;9320;50.256;19.026;2022-09-09T14:14:52;24.00;65.10
18388;DHT22;9320;50.256;19.026;2022-09-09T14:17:20;23.70;64.70
18388;DHT22;9320;50.256;19.026;2022-09-09T14:19:48;23.70;65.20
18388;DHT22;9320;50.256;19.026;2022-09-09T14:22:18;23.50;65.00
18388;DHT22;9320;50.256;19.026;2022-09-09T14:24:47;23.40;65.20
18388;DHT22;9320;50.256;19.026;2022-09-09T14:27:15;23.40;65.60
18388;DHT22;9320;50.256;19.026;2022-09-09T14:29:44;23.40;65.40
18388;DHT22;9320;50.256;19.026;2022-09-09T14:32:12;23.50;65.60
18388;DHT22;9320;50.256;19.026;2022-09-09T14:34:40;23.50;66.50
18388;DHT22;9320;50.256;19.026;2022-09-09T14:37:08;23.40;66.40
18388;DHT22;9320;50.256;19.026;2022-09-09T14:39:38;23.40;66.90
18388;DHT22;9320;50.256;19.026;2022-09-09T14:42:06;23.30;67.20
18388;DHT22;9320;50.256;19.026;2022-09-09T14:44:35;23.30;67.70
18388;DHT22;9320;50.256;19.026;2022-09-09T14:47:04;23.20;67.70
18388;DHT22;9320;50.256;19.026;2022-09-09T14:49:32;23.20;67.90
18388;DHT22;9320;50.256;19.026;2022-09-09T14:52:00;23.20;67.70
18388;DHT22;9320;50.256;19.026;2022-09-09T14:54:28;23.10;68.60
18388;DHT22;9320;50.256;19.026;2022-09-09T14:56:58;23.10;68.30
18388;DHT22;9320;50.256;19.026;2022-09-09T14:59:26;23.10;67.60
18388;DHT22;9320;50.256;19.026;2022-09-09T15:01:54;23.00;67.60
18388;DHT22;9320;50.256;19.026;2022-09-09T15:04:22;23.00;68.40
18388;DHT22;9320;50.256;19.026;2022-09-09T15:06:50;23.00;67.70
18388;DHT22;9320;50.256;19.026;2022-09-09T15:09:19;23.00;67.20
18388;DHT22;9320;50.256;19.026;2022-09-09T15:11:47;23.10;67.50
18388;DHT22;9320;50.256;19.026;2022-09-09T15:14:17;23.00;67.40
18388;DHT22;9320;50.256;19.026;2022-09-09T15:16:51;22.90;67.90
18388;DHT22;9320;50.256;19.026;2022-09-09T15:19:19;22.70;67.90
18388;DHT22;9320;50.256;19.026;2022-09-09T15:21:47;22.70;68.40
18388;DHT22;9320;50.256;19.026;2022-09-09T15:24:15;22.70;67.40
18388;DHT22;9320;50.256;19.026;2022-09-09T15:26:43;22.60;69.00
18388;DHT22;9320;50.256;19.026;2022-09-09T15:29:12;22.50;69.10
18388;DHT22;9320;50.256;19.026;2022-09-09T15:31:41;22.50;69.70
18388;DHT22;9320;50.256;19.026;2022-09-09T15:34:09;22.40;70.10
18388;DHT22;9320;50.256;19.026;2022-09-09T15:36:39;22.30;70.10
18388;DHT22;9320;50.256;19.026;2022-09-09T15:39:09;22.20;70.50
18388;DHT22;9320;50.256;19.026;2022-09-09T15:41:39;22.20;70.50
18388;DHT22;9320;50.256;19.026;2022-09-09T15:44:07;22.00;71.60
18388;DHT22;9320;50.256;19.026;2022-09-09T15:46:38;21.90;71.40
18388;DHT22;9320;50.256;19.026;2022-09-09T15:49:09;21.80;71.50
18388;DHT22;9320;50.256;19.026;2022-09-09T15:51:39;21.70;71.70
18388;DHT22;9320;50.256;19.026;2022-09-09T15:54:11;21.60;71.40
18388;DHT22;9320;50.256;19.026;2022-09-09T15:56:40;21.60;71.20
18388;DHT22;9320;50.256;19.026;2022-09-09T15:59:09;21.50;71.50
18388;DHT22;9320;50.256;19.026;2022-09-09T16:01:38;21.40;71.70
18388;DHT22;9320;50.256;19.026;2022-09-09T16:04:09;21.30;72.30
18388;DHT22;9320;50.256;19.026;2022-09-09T16:06:37;21.20;72.50